Time;durP1;ratioP1;P1;durP2;ratioP2;P2;SDS_P1;SDS_P2;PMS_P1;PMS_P2;Temp;Humidity;BMP_temperature;BMP_pressure;BME280_temperature;BME280_humidity;BME280_pressure;Samples;Min_cycle;Max_cycle;Signal;HPM_P1;HPM_P2
2022/04/27 00:01:15;;;;;;;4.13;2.13;;;;;;;0.87;64.23;100972.81;5037426;28;20523;-83
2022/04/27 00:03:44;;;;;;;3.85;1.70;;;;;;;0.86;64.49;100981.94;5037173;28;20045;-82
2022/04/27 00:06:10;;;;;;;2.83;1.42;;;;;;;0.83;64.15;100973.41;5041682;28;20068;-82
2022/04/27 00:08:38;;;;;;;4.40;1.58;;;;;;;0.83;64.21;100981.53;5029273;28;20487;-82
2022/04/27 00:11:04;;;;;;;3.85;1.70;;;;;;;0.83;64.08;100976.13;5017657;28;20065;-82
2022/04/27 00:13:30;;;;;;;4.47;1.20;;;;;;;0.81;64.78;100989.84;5018316;28;20485;-82
2022/04/27 00:15:58;;;;;;;2.28;1.48;;;;;;;0.76;64.47;100992.34;5030638;28;20037;-82
2022/04/27 00:18:24;;;;;;;5.30;1.88;;;;;;;0.77;64.43;100996.72;5021157;28;20041;-81
2022/04/27 00:20:50;;;;;;;3.17;1.80;;;;;;;0.79;64.99;100996.50;5052565;28;20072;-82
2022/04/27 00:23:16;;;;;;;2.75;1.40;;;;;;;0.79;64.53;101005.44;5056648;28;20459;-82
2022/04/27 00:25:41;;;;;;;4.13;1.63;;;;;;;0.78;64.82;101001.06;5041499;28;20496;-81
2022/04/27 00:28:07;;;;;;;3.97;1.42;;;;;;;0.75;64.14;101001.50;5035345;28;20072;-81
2022/04/27 00:30:33;;;;;;;2.50;1.08;;;;;;;0.76;64.83;101003.16;5036158;28;20136;-81
2022/04/27 00:33:06;;;;;;;2.45;1.30;;;;;;;0.82;64.83;101001.47;5036584;28;20041;-81
2022/04/27 00:35:31;;;;;;;2.95;0.85;;;;;;;0.78;64.67;101009.16;5035781;28;20048;-81
2022/04/27 00:37:57;;;;;;;2.97;1.13;;;;;;;0.81;64.81;101008.75;5034951;28;20176;-82
2022/04/27 00:40:22;;;;;;;1.65;0.90;;;;;;;0.85;64.48;101020.78;5052024;28;20045;-81
2022/04/27 00:42:48;;;;;;;1.95;0.98;;;;;;;0.92;64.22;101023.53;5051055;28;20043;-81
2022/04/27 00:45:14;;;;;;;3.40;1.75;;;;;;;0.90;64.16;101026.44;5056542;28;20041;-81
2022/04/27 00:47:39;;;;;;;0.80;0.80;;;;;;;0.85;64.59;101020.78;5056784;28;20090;-81
2022/04/27 00:50:05;;;;;;;1.55;0.88;;;;;;;0.80;63.83;101020.59;5072343;28;20041;-81
2022/04/27 00:52:32;;;;;;;2.25;1.00;;;;;;;0.77;63.96;101033.69;5055365;28;20108;-82
2022/04/27 00:54:57;;;;;;;1.48;1.00;;;;;;;0.74;64.17;101026.84;5043503;28;20068;-81
2022/04/27 00:57:24;;;;;;;0.52;0.50;;;;;;;0.68;64.12;101030.34;5036614;28;20073;-80
2022/04/27 00:59:50;;;;;;;2.28;0.90;;;;;;;0.65;64.12;101038.88;5051512;28;20255;-80
2022/04/27 01:02:16;;;;;;;2.15;0.80;;;;;;;0.66;63.91;101040.53;5018703;28;20045;-81
2022/04/27 01:04:42;;;;;;;3.10;1.10;;;;;;;0.60;63.70;101044.06;5035068;28;20128;-80
2022/04/27 01:07:09;;;;;;;1.00;0.80;;;;;;;0.56;64.38;101040.13;5018624;28;20037;-81
2022/04/27 01:09:35;;;;;;;0.80;0.80;;;;;;;0.56;64.53;101049.06;5050730;28;20076;-81
2022/04/27 01:12:01;;;;;;;0.93;0.60;;;;;;;0.52;64.53;101046.94;5034708;28;20092;-80
2022/04/27 01:14:28;;;;;;;0.43;0.43;;;;;;;0.49;64.65;101037.38;5067041;28;20049;-80
2022/04/27 01:16:56;;;;;;;0.93;0.60;;;;;;;0.48;64.54;101046.53;5001545;28;20048;-80
2022/04/27 01:19:23;;;;;;;1.05;0.50;;;;;;;0.47;64.29;101046.72;5066810;28;20042;-80
2022/04/27 01:21:55;;;;;;;0.85;0.60;;;;;;;0.42;64.87;101054.63;5034144;28;20056;-80
2022/04/27 01:24:25;;;;;;;0.55;0.50;;;;;;;0.39;64.64;101049.63;5017065;28;20041;-80
2022/04/27 01:26:53;;;;;;;1.58;0.60;;;;;;;0.35;65.09;101057.31;5034218;28;20132;-81
2022/04/27 01:29:19;;;;;;;3.05;0.63;;;;;;;0.36;64.45;101060.84;5013577;28;20060;-81
2022/04/27 01:31:46;;;;;;;0.60;0.60;;;;;;;0.34;64.84;101062.91;4997185;28;20046;-80
2022/04/27 01:34:12;;;;;;;0.82;0.60;;;;;;;0.32;65.06;101059.56;5013317;28;20059;-80
2022/04/27 01:36:38;;;;;;;0.52;0.50;;;;;;;0.33;64.94;101066.63;5013315;28;20128;-79
2022/04/27 01:39:04;;;;;;;1.13;0.80;;;;;;;0.35;64.83;101067.25;5014814;28;20507;-80
2022/04/27 01:41:30;;;;;;;1.25;0.60;;;;;;;0.30;64.63;101063.31;4997436;28;20046;-80
2022/04/27 01:43:57;;;;;;;0.55;0.40;;;;;;;0.34;65.12;101069.13;5013328;28;20041;-80
2022/04/27 01:46:24;;;;;;;0.60;0.50;;;;;;;0.35;64.75;101070.81;5013537;28;20456;-80
2022/04/27 01:48:50;;;;;;;0.57;0.50;;;;;;;0.42;64.69;101070.81;5015429;28;20072;-80
2022/04/27 01:51:18;;;;;;;0.60;0.60;;;;;;;0.37;64.69;101070.63;5032810;28;20050;-79
2022/04/27 01:56:28;;;;;;;0.68;0.60;;;;;;;0.23;65.50;101073.25;5032735;28;20037;-80
2022/04/27 01:58:54;;;;;;;1.20;0.60;;;;;;;0.26;65.37;101072.84;5049245;28;20530;-80
2022/04/27 02:01:21;;;;;;;0.40;0.40;;;;;;;0.28;64.91;101072.66;5030992;28;20038;-80
2022/04/27 02:03:47;;;;;;;1.00;0.57;;;;;;;0.33;64.91;101082.81;5035434;28;20038;-80
2022/04/27 02:06:19;;;;;;;0.60;0.50;;;;;;;0.34;65.17;101081.78;5024843;28;20029;-79
2022/04/27 02:08:46;;;;;;;0.65;0.63;;;;;;;0.30;65.02;101076.81;5022915;28;20065;-79
2022/04/27 02:11:14;;;;;;;0.70;0.70;;;;;;;0.28;64.52;101086.16;5041148;28;20037;-79
2022/04/27 02:13:53;;;;;;;0.65;0.57;;;;;;;0.23;65.44;101081.38;5024084;28;20037;-79
2022/04/27 02:16:19;;;;;;;2.45;0.70;;;;;;;0.22;65.23;101093.19;5049873;28;20124;-79
2022/04/27 02:18:46;;;;;;;1.63;0.80;;;;;;;0.28;65.67;101095.06;5031426;28;20037;-79
2022/04/27 02:21:14;;;;;;;0.80;0.63;;;;;;;0.31;65.03;101101.94;5030661;28;20045;-79
2022/04/27 02:23:39;;;;;;;1.10;0.73;;;;;;;0.32;65.53;101102.75;5031982;28;20042;-79
2022/04/27 02:26:05;;;;;;;0.82;0.80;;;;;;;0.30;65.50;101109.19;5053536;28;20045;-80
2022/04/27 02:28:31;;;;;;;0.50;0.50;;;;;;;0.32;65.70;101103.59;5049659;28;20136;-79
2022/04/27 02:30:56;;;;;;;0.60;0.60;;;;;;;0.32;65.61;101103.59;5029860;28;20111;-84
2022/04/27 02:33:22;;;;;;;1.58;0.50;;;;;;;0.29;65.46;101104.00;5024373;28;20040;-76
2022/04/27 02:35:48;;;;;;;2.03;0.80;;;;;;;0.24;65.70;101109.19;5038239;28;20119;-78
2022/04/27 02:38:13;;;;;;;1.25;0.60;;;;;;;0.30;65.49;101111.91;5030886;28;20037;-79
2022/04/27 02:40:40;;;;;;;1.02;0.70;;;;;;;0.34;65.45;101108.78;5030885;28;20033;-78
2022/04/27 02:43:06;;;;;;;3.03;0.50;;;;;;;0.35;65.46;101111.31;5023571;28;20385;-79
2022/04/27 02:45:31;;;;;;;0.60;0.60;;;;;;;0.35;65.27;101119.41;5041100;28;20377;-78
2022/04/27 02:47:57;;;;;;;1.25;0.77;;;;;;;0.37;64.87;101124.59;5035482;28;20030;-79
2022/04/27 02:53:08;;;;;;;1.98;0.82;;;;;;;0.36;65.22;101123.78;5018595;28;20050;-78
2022/04/27 02:55:34;;;;;;;1.15;0.80;;;;;;;0.37;65.29;101130.84;5008212;28;20041;-79
2022/04/27 02:58:00;;;;;;;1.95;1.30;;;;;;;0.40;65.37;101143.09;5010390;28;20049;-78
2022/04/27 03:00:30;;;;;;;1.35;0.90;;;;;;;0.50;65.21;101138.13;5023832;28;20519;-79
2022/04/27 03:02:57;;;;;;;1.42;0.80;;;;;;;0.55;65.36;101141.91;5020937;28;20034;-79
2022/04/27 03:05:23;;;;;;;2.88;0.82;;;;;;;0.58;65.10;101143.34;5034138;28;20420;-79
2022/04/27 03:07:49;;;;;;;1.10;0.70;;;;;;;0.61;65.36;101153.75;5024516;28;20042;-79
2022/04/27 03:10:15;;;;;;;1.17;0.90;;;;;;;0.70;65.17;101154.41;5046139;28;20041;-78
2022/04/27 03:12:40;;;;;;;2.05;0.70;;;;;;;0.75;65.06;101158.16;5042335;28;20545;-78
2022/04/27 03:15:07;;;;;;;0.73;0.70;;;;;;;0.76;64.85;101158.97;5023358;28;20066;-77
2022/04/27 03:17:34;;;;;;;2.00;0.93;;;;;;;0.81;64.69;101172.69;5003199;28;20073;-79
2022/04/27 03:20:00;;;;;;;2.80;0.80;;;;;;;0.92;64.53;101171.28;5046600;28;20041;-79
2022/04/27 03:22:28;;;;;;;1.38;0.90;;;;;;;0.92;64.27;101176.69;5044908;28;20087;-79
2022/04/27 03:24:53;;;;;;;3.90;0.70;;;;;;;0.95;64.51;101176.28;5031190;28;20128;-79
2022/04/27 03:27:25;;;;;;;1.30;0.70;;;;;;;1.01;64.72;101180.84;5010101;28;20049;-78
2022/04/27 03:29:50;;;;;;;1.13;0.75;;;;;;;1.07;64.52;101180.88;5022865;28;20050;-80
2022/04/27 03:32:16;;;;;;;0.70;0.70;;;;;;;1.13;64.25;101188.16;5008113;28;20600;-79
2022/04/27 03:34:49;;;;;;;1.40;0.85;;;;;;;1.17;64.41;101186.69;5034779;28;20045;-78
2022/04/27 03:37:14;;;;;;;2.15;0.80;;;;;;;1.15;63.95;101180.66;5034768;28;20041;-80
2022/04/27 03:39:40;;;;;;;1.48;0.90;;;;;;;1.15;64.24;101185.25;5037100;28;20033;-80
2022/04/27 03:42:07;;;;;;;2.15;0.80;;;;;;;1.28;64.25;101185.25;5034863;28;20236;-79
2022/04/27 03:44:35;;;;;;;0.77;0.60;;;;;;;1.31;63.60;101192.97;5032560;28;20518;-78
2022/04/27 03:47:02;;;;;;;2.10;0.88;;;;;;;1.35;63.82;101194.19;5033211;28;20660;-78
2022/04/27 03:49:27;;;;;;;0.82;0.55;;;;;;;1.35;63.79;101187.97;5012221;28;20037;-78
2022/04/27 03:51:55;;;;;;;1.40;0.82;;;;;;;1.36;63.50;101198.56;5033101;28;20042;-78
2022/04/27 03:54:26;;;;;;;0.60;0.60;;;;;;;1.35;63.71;101202.31;5033250;28;20124;-78
2022/04/27 03:57:17;;;;;;;0.80;0.80;;;;;;;1.31;63.28;101198.38;5033214;28;20042;-78
2022/04/27 03:59:43;;;;;;;0.95;0.77;;;;;;;1.33;63.56;101204.38;5032381;28;20153;-79
2022/04/27 04:02:10;;;;;;;1.73;1.00;;;;;;;1.34;63.47;101208.75;5029647;28;20041;-78
2022/04/27 04:04:36;;;;;;;2.38;1.27;;;;;;;1.34;62.76;101205.22;4997215;28;20081;-78
2022/04/27 04:07:03;;;;;;;2.78;1.48;;;;;;;1.33;63.18;101209.81;5029951;28;20092;-78
2022/04/27 04:09:37;;;;;;;2.47;1.42;;;;;;;1.39;63.19;101208.13;5021747;28;20052;-78
2022/04/27 04:12:03;;;;;;;2.00;1.50;;;;;;;1.49;63.08;101211.28;5014487;28;20033;-79
2022/04/27 04:14:29;;;;;;;3.90;1.65;;;;;;;1.41;62.81;101217.72;5033585;28;20457;-78
2022/04/27 04:17:00;;;;;;;2.33;1.38;;;;;;;1.47;62.84;101224.16;5049427;28;20076;-78
2022/04/27 04:19:53;;;;;;;3.80;1.30;;;;;;;1.51;63.06;101215.44;5016653;28;20080;-79
2022/04/27 04:22:38;;;;;;;1.73;1.20;;;;;;;1.66;62.11;101230.63;5032456;28;20080;-79
2022/04/27 04:28:30;;;;;;;1.98;0.82;;;;;;;1.72;61.99;101246.00;5049167;28;20056;-78
2022/04/27 04:30:59;;;;;;;1.02;0.98;;;;;;;1.87;62.03;101248.50;5032697;28;20037;-79
2022/04/27 04:33:43;;;;;;;1.35;1.10;;;;;;;1.87;61.94;101246.63;5014810;28;20073;-80
2022/04/27 04:36:10;;;;;;;1.10;0.98;;;;;;;1.75;61.71;101264.56;5028121;28;20042;-82
2022/04/27 04:38:39;;;;;;;2.13;1.20;;;;;;;1.65;62.30;101261.44;5030349;28;20037;-81
2022/04/27 04:41:06;;;;;;;3.40;1.23;;;;;;;1.77;62.40;101262.47;5046063;28;20045;-81
2022/04/27 04:43:37;;;;;;;1.42;1.05;;;;;;;1.92;62.06;101268.50;5053544;28;20103;-82
2022/04/27 04:46:03;;;;;;;3.05;1.00;;;;;;;2.03;61.62;101264.31;5044861;28;20822;-82
2022/04/27 04:48:43;;;;;;;1.27;1.00;;;;;;;2.07;61.38;101266.41;5026599;28;20041;-83
2022/04/27 04:51:29;;;;;;;3.80;0.90;;;;;;;2.07;61.34;101265.56;5026283;28;20160;-82
2022/04/27 04:54:13;;;;;;;2.40;1.05;;;;;;;2.14;60.92;101276.41;5032133;28;20041;-82
2022/04/27 04:56:55;;;;;;;2.53;1.00;;;;;;;2.33;61.32;101268.25;5036406;28;20045;-83
2022/04/27 04:59:39;;;;;;;1.58;0.95;;;;;;;2.67;60.91;101277.94;5037068;28;20128;-81
2022/04/27 05:02:13;;;;;;;2.15;0.85;;;;;;;2.81;60.13;101280.63;5036611;28;20057;-82
2022/04/27 05:04:58;;;;;;;0.70;0.70;;;;;;;2.71;59.83;101284.59;5055178;28;20522;-82
2022/04/27 05:07:42;;;;;;;0.60;0.40;;;;;;;2.64;59.92;101283.81;5048543;28;20093;-81
2022/04/27 05:10:11;;;;;;;2.03;0.70;;;;;;;2.53;59.78;101289.88;5034923;28;20052;-80
2022/04/27 05:12:45;;;;;;;1.23;1.02;;;;;;;2.29;60.44;101291.38;5049596;28;20038;-81
2022/04/27 05:15:26;;;;;;;2.75;1.05;;;;;;;2.37;60.39;101293.03;5049444;28;20033;-83
2022/04/27 05:18:18;;;;;;;2.08;0.75;;;;;;;2.38;60.59;101300.09;5066498;28;20049;-82
2022/04/27 05:21:03;;;;;;;1.55;0.75;;;;;;;2.32;60.26;101307.22;5018924;28;20053;-83
2022/04/27 05:23:53;;;;;;;0.82;0.55;;;;;;;2.45;60.71;101306.34;5018325;28;20569;-83
2022/04/27 05:26:45;;;;;;;1.48;0.82;;;;;;;2.50;60.33;101306.56;5000348;28;20169;-83
2022/04/27 05:32:43;;;;;;;0.77;0.57;;;;;;;2.54;59.70;101309.66;5053472;28;20397;-80
2022/04/27 05:35:28;;;;;;;3.15;0.80;;;;;;;2.64;59.85;101326.31;5015499;28;20485;-80
2022/04/27 05:38:16;;;;;;;6.63;1.00;;;;;;;2.89;59.19;101312.91;5030326;28;20060;-80
2022/04/27 05:40:56;;;;;;;2.30;1.05;;;;;;;3.09;59.08;101316.34;5049557;28;20033;-85
2022/04/27 05:43:48;;;;;;;0.93;0.77;;;;;;;3.31;58.56;101317.72;5024638;28;20033;-79
2022/04/27 05:46:34;;;;;;;1.05;0.80;;;;;;;3.62;58.07;101329.63;5040376;28;20037;-81
2022/04/27 05:49:26;;;;;;;5.38;1.25;;;;;;;3.72;57.72;101321.03;5062318;28;20069;-79
2022/04/27 05:52:14;;;;;;;1.83;1.05;;;;;;;4.28;57.70;101328.31;5050741;28;20132;-79
2022/04/27 05:54:53;;;;;;;3.10;1.27;;;;;;;4.45;56.30;101335.66;5032599;28;20033;-79
2022/04/27 05:57:39;;;;;;;1.95;1.13;;;;;;;4.59;55.55;101338.25;5047288;28;20103;-79
2022/04/27 06:00:46;;;;;;;2.15;0.80;;;;;;;4.75;54.94;101337.69;5045746;28;20095;-79
2022/04/27 06:03:35;;;;;;;5.10;1.00;;;;;;;4.50;53.70;101346.69;4993614;28;20080;-80
2022/04/27 06:06:04;;;;;;;2.28;0.68;;;;;;;3.89;54.40;101342.00;5005870;28;20050;-80
2022/04/27 06:08:31;;;;;;;2.42;0.75;;;;;;;3.73;55.37;101352.53;5010892;28;20042;-79
2022/04/27 06:11:03;;;;;;;1.42;0.40;;;;;;;3.54;55.65;101357.03;5010794;28;20534;-79
2022/04/27 06:13:37;;;;;;;0.60;0.60;;;;;;;3.30;56.23;101355.91;4994529;28;20057;-80
2022/04/27 06:16:21;;;;;;;0.80;0.75;;;;;;;3.33;56.02;101363.63;5025938;28;20518;-80
2022/04/27 06:19:01;;;;;;;1.02;0.70;;;;;;;3.47;56.45;101354.38;5051200;28;20080;-80
2022/04/27 06:21:33;;;;;;;1.38;0.60;;;;;;;3.62;55.16;101373.88;5034276;28;20037;-80
2022/04/27 06:24:00;;;;;;;1.60;0.70;;;;;;;3.55;54.80;101369.56;5050823;28;20077;-80
2022/04/27 06:26:27;;;;;;;0.70;0.50;;;;;;;3.53;54.18;101374.38;5034375;28;20123;-80
2022/04/27 06:28:53;;;;;;;0.82;0.70;;;;;;;3.21;54.91;101384.31;5051284;28;20103;-81
2022/04/27 06:31:19;;;;;;;1.95;0.93;;;;;;;3.26;55.29;101385.34;5057054;28;20146;-80
2022/04/27 06:33:46;;;;;;;2.40;0.60;;;;;;;3.49;55.13;101384.84;5064241;28;20041;-81
2022/04/27 06:36:11;;;;;;;0.80;0.80;;;;;;;3.75;55.02;101396.59;5032320;28;20175;-81
2022/04/27 06:38:37;;;;;;;0.63;0.60;;;;;;;3.87;53.94;101397.56;5039605;28;20064;-81
2022/04/27 06:41:08;;;;;;;0.68;0.63;;;;;;;3.74;54.48;101401.19;5027608;28;20554;-83
2022/04/27 06:43:54;;;;;;;1.02;0.80;;;;;;;3.68;54.46;101396.63;5014030;28;20126;-81
2022/04/27 06:46:38;;;;;;;1.00;0.90;;;;;;;3.78;54.55;101404.28;5013107;28;20064;-81
2022/04/27 06:49:22;;;;;;;3.13;1.20;;;;;;;3.84;54.66;101396.13;5011655;28;20053;-82
2022/04/27 06:52:06;;;;;;;2.83;0.80;;;;;;;3.99;54.32;101397.69;5012645;28;20037;-81
2022/04/27 06:54:51;;;;;;;2.13;0.95;;;;;;;4.04;53.73;101406.84;5012578;28;20045;-80
2022/04/27 06:57:35;;;;;;;0.98;0.82;;;;;;;3.90;53.52;101413.41;5031564;28;20386;-82
2022/04/27 07:00:08;;;;;;;1.35;0.63;;;;;;;3.92;54.02;101412.13;5031735;28;20045;-81
2022/04/27 07:02:37;;;;;;;1.10;0.75;;;;;;;4.07;53.71;101422.69;5047189;28;20046;-81
2022/04/27 07:05:02;;;;;;;0.70;0.70;;;;;;;4.13;52.84;101423.69;5035852;28;20091;-81
2022/04/27 07:07:28;;;;;;;4.68;0.90;;;;;;;4.21;52.85;101415.31;5014598;28;20049;-81
2022/04/27 07:09:56;;;;;;;1.13;0.70;;;;;;;4.26;51.99;101423.63;5033004;28;20118;-82
2022/04/27 07:12:21;;;;;;;2.80;0.93;;;;;;;4.30;52.60;101424.00;5032079;28;20038;-81
2022/04/27 07:14:48;;;;;;;1.92;0.75;;;;;;;4.57;52.73;101430.91;5029830;28;20038;-81
2022/04/27 07:17:14;;;;;;;2.47;0.80;;;;;;;4.83;49.75;101432.53;5041546;28;20079;-86
2022/04/27 07:19:40;;;;;;;1.30;0.93;;;;;;;5.41;49.25;101424.81;5038496;28;20033;-84
2022/04/27 07:22:06;;;;;;;1.45;0.90;;;;;;;5.99;47.60;101426.16;5041812;28;20053;-86
2022/04/27 07:24:36;;;;;;;2.70;0.90;;;;;;;6.25;46.07;101425.78;5035966;28;20120;-84
2022/04/27 07:27:01;;;;;;;1.48;0.98;;;;;;;6.27;45.33;101429.09;5036672;28;20132;-84
2022/04/27 07:29:27;;;;;;;2.83;0.77;;;;;;;6.46;44.56;101434.47;5069962;28;20084;-87
2022/04/27 07:31:53;;;;;;;1.73;0.73;;;;;;;6.26;44.75;101432.06;5058264;28;20045;-86
2022/04/27 07:34:19;;;;;;;2.10;0.90;;;;;;;6.18;44.91;101440.56;5065985;28;20044;-85
2022/04/27 07:36:44;;;;;;;0.70;0.70;;;;;;;6.38;44.35;101429.34;5025569;28;20489;-82
2022/04/27 07:39:10;;;;;;;2.97;0.90;;;;;;;6.69;44.10;101423.59;5012581;28;20048;-82
2022/04/27 07:41:35;;;;;;;1.33;0.93;;;;;;;7.00;43.18;101436.06;5022142;28;20091;-79
2022/04/27 07:44:01;;;;;;;1.50;1.25;;;;;;;6.79;43.81;101440.22;5024162;28;20454;-80
2022/04/27 07:46:27;;;;;;;2.45;0.70;;;;;;;6.52;43.86;101439.81;5035739;28;20032;-79
2022/04/27 07:48:52;;;;;;;0.65;0.65;;;;;;;6.17;44.86;101453.34;5024068;28;20461;-79
2022/04/27 07:51:18;;;;;;;1.02;0.93;;;;;;;5.45;45.73;101455.94;5010860;28;20066;-78
2022/04/27 07:53:44;;;;;;;1.55;0.77;;;;;;;5.23;46.88;101462.06;5010637;28;20046;-79
2022/04/27 07:56:10;;;;;;;1.08;0.70;;;;;;;5.01;46.04;101458.94;5011544;28;20042;-79
2022/04/27 07:58:36;;;;;;;2.70;0.90;;;;;;;4.61;47.71;101470.16;5017380;28;20030;-80
2022/04/27 08:01:02;;;;;;;1.25;0.80;;;;;;;4.30;46.82;101478.34;5024697;28;20103;-78
2022/04/27 08:03:28;;;;;;;0.95;0.70;;;;;;;4.16;47.35;101480.28;5026751;28;20037;-78
2022/04/27 08:05:53;;;;;;;1.27;0.70;;;;;;;3.97;47.23;101471.22;5028995;28;20044;-78
2022/04/27 08:08:19;;;;;;;1.63;0.70;;;;;;;3.91;47.37;101481.06;5030461;28;20042;-78
2022/04/27 08:10:45;;;;;;;3.00;0.75;;;;;;;3.77;47.58;101495.75;5030268;28;20073;-78
2022/04/27 08:13:10;;;;;;;1.73;0.68;;;;;;;3.43;47.80;101496.91;5030553;28;20037;-78
2022/04/27 08:15:37;;;;;;;3.33;1.00;;;;;;;3.22;49.27;101502.59;5030331;28;20091;-78
2022/04/27 08:18:07;;;;;;;1.67;1.00;;;;;;;3.07;49.05;101488.44;5028947;28;20037;-77
2022/04/27 08:23:23;;;;;;;3.80;1.27;;;;;;;2.95;50.96;101526.19;5033671;28;20044;-77
2022/04/27 08:25:49;;;;;;;2.38;0.90;;;;;;;2.84;51.11;101516.00;5032443;28;20048;-79
2022/04/27 08:28:16;;;;;;;1.15;0.80;;;;;;;2.77;52.51;101513.25;5015998;28;20041;-79
2022/04/27 08:30:46;;;;;;;4.32;1.30;;;;;;;2.67;54.07;101523.69;5022234;28;20420;-79
2022/04/27 08:33:12;;;;;;;1.75;0.85;;;;;;;2.58;54.81;101520.34;5012931;28;20050;-79
2022/04/27 08:35:38;;;;;;;5.28;1.08;;;;;;;2.57;54.69;101534.94;5013915;28;20503;-79
2022/04/27 08:38:05;;;;;;;6.85;0.98;;;;;;;2.52;54.67;101536.59;5028728;28;20038;-79
2022/04/27 08:40:31;;;;;;;3.05;0.90;;;;;;;2.53;54.73;101530.97;5016029;28;20073;-79
2022/04/27 08:43:00;;;;;;;1.67;0.73;;;;;;;2.59;54.96;101534.72;5014810;28;20393;-79
2022/04/27 08:45:26;;;;;;;3.22;1.00;;;;;;;2.71;54.70;101536.63;5013875;28;20060;-78
2022/04/27 08:47:51;;;;;;;0.77;0.60;;;;;;;2.82;54.80;101540.59;5016713;28;20052;-76
2022/04/27 08:50:20;;;;;;;1.17;0.90;;;;;;;3.06;53.90;101543.72;5012599;28;20046;-77
2022/04/27 08:52:46;;;;;;;0.98;0.50;;;;;;;3.00;53.07;101550.81;5013675;28;20133;-77
2022/04/27 08:55:12;;;;;;;2.35;0.63;;;;;;;2.96;53.04;101549.56;5032092;28;20041;-78
2022/04/27 08:57:39;;;;;;;1.60;0.73;;;;;;;2.98;53.43;101556.44;5033143;28;20046;-78
2022/04/27 09:00:07;;;;;;;1.13;0.77;;;;;;;3.07;52.20;101548.09;5031768;28;20593;-78
2022/04/27 09:02:33;;;;;;;2.13;0.70;;;;;;;3.01;51.64;101568.75;5031911;28;20049;-77
2022/04/27 09:05:11;;;;;;;0.60;0.50;;;;;;;3.08;51.31;101564.16;5025439;28;20036;-77
2022/04/27 09:07:50;;;;;;;0.73;0.73;;;;;;;2.94;51.01;101557.06;5013426;28;20049;-77
2022/04/27 09:10:17;;;;;;;1.55;0.70;;;;;;;3.08;50.65;101561.44;4996206;28;20053;-79
2022/04/27 09:12:44;;;;;;;1.55;0.55;;;;;;;3.14;50.50;101560.63;5012939;28;20141;-78
2022/04/27 09:15:10;;;;;;;1.20;0.40;;;;;;;3.39;50.14;101557.25;5016657;28;20042;-79
2022/04/27 09:23:07;;;;;;;1.50;0.50;;;;;;;3.67;47.06;101570.56;5023511;28;20088;-80
2022/04/27 09:25:35;;;;;;;0.85;0.50;;;;;;;3.80;47.26;101570.50;5012772;28;20042;-80
2022/04/27 09:28:03;;;;;;;1.75;0.70;;;;;;;3.70;47.25;101576.38;5027883;28;20038;-79
2022/04/27 09:30:32;;;;;;;1.10;0.80;;;;;;;3.72;48.61;101582.44;5010678;28;20120;-78
2022/04/27 09:32:58;;;;;;;0.68;0.68;;;;;;;3.78;49.72;101576.13;5012637;28;20042;-78
2022/04/27 09:35:34;;;;;;;1.75;0.82;;;;;;;3.96;49.75;101580.06;5012635;28;20455;-78
2022/04/27 09:38:16;;;;;;;1.83;0.80;;;;;;;4.06;49.80;101581.28;5012458;28;20100;-78
2022/04/27 09:40:47;;;;;;;1.42;0.80;;;;;;;4.24;49.40;101578.69;5013235;28;20076;-78
2022/04/27 09:43:14;;;;;;;1.40;0.85;;;;;;;4.38;49.16;101579.47;5015393;28;20045;-78
2022/04/27 09:45:42;;;;;;;4.03;0.90;;;;;;;4.58;48.76;101584.78;5031868;28;20045;-78
2022/04/27 09:48:08;;;;;;;1.60;0.77;;;;;;;4.68;46.43;101587.00;5030780;28;20041;-78
2022/04/27 09:51:02;;;;;;;1.20;0.63;;;;;;;4.58;45.96;101584.78;5018412;28;20045;-78
2022/04/27 09:53:29;;;;;;;3.30;0.60;;;;;;;4.50;45.46;101587.72;5042140;28;20041;-78
2022/04/27 09:55:55;;;;;;;0.95;0.70;;;;;;;4.51;45.83;101592.13;5031899;28;20037;-78
2022/04/27 09:58:25;;;;;;;6.60;1.17;;;;;;;4.40;44.85;101601.81;5049896;28;20557;-79
2022/04/27 10:00:56;;;;;;;0.63;0.60;;;;;;;4.24;44.67;101602.31;5033309;28;20396;-78
2022/04/27 10:03:24;;;;;;;1.40;0.60;;;;;;;3.97;45.10;101606.16;5031560;28;20049;-80
2022/04/27 10:05:50;;;;;;;1.77;0.73;;;;;;;3.81;45.87;101604.75;5029899;28;20056;-79
2022/04/27 10:08:18;;;;;;;4.05;0.80;;;;;;;3.67;46.71;101620.25;5039651;28;20503;-79
2022/04/27 10:10:47;;;;;;;0.88;0.80;;;;;;;3.66;46.53;101615.88;4993747;28;20503;-78
2022/04/27 10:13:15;;;;;;;1.38;0.65;;;;;;;3.75;46.65;101632.75;5020018;28;20056;-78
2022/04/27 10:15:45;;;;;;;1.65;0.63;;;;;;;3.72;47.28;101625.88;5030482;28;20415;-77
2022/04/27 10:18:18;;;;;;;1.38;0.90;;;;;;;3.65;47.86;101614.19;5031517;28;20076;-78
2022/04/27 10:20:44;;;;;;;2.25;1.15;;;;;;;3.70;48.27;101625.25;5046726;28;20561;-77
2022/04/27 10:23:16;;;;;;;1.13;0.80;;;;;;;3.67;48.54;101631.09;5031527;28;20052;-78
2022/04/27 10:25:42;;;;;;;1.15;0.70;;;;;;;3.48;47.55;101638.22;5063582;28;20458;-77
2022/04/27 10:28:18;;;;;;;0.80;0.80;;;;;;;3.48;48.04;101642.81;5030538;28;20479;-77
2022/04/27 10:30:44;;;;;;;1.60;0.80;;;;;;;3.37;49.28;101648.88;5026491;28;20047;-78
2022/04/27 10:33:09;;;;;;;1.52;0.80;;;;;;;3.21;51.98;101641.97;5027886;28;20037;-77
2022/04/27 10:35:36;;;;;;;2.40;0.80;;;;;;;3.00;53.49;101651.13;5017170;28;20030;-78
2022/04/27 10:38:05;;;;;;;2.17;0.63;;;;;;;2.89;54.40;101655.28;5030211;28;20412;-77
2022/04/27 10:40:39;;;;;;;2.42;0.93;;;;;;;2.96;55.23;101668.88;5031194;28;20080;-77
2022/04/27 10:43:14;;;;;;;1.75;1.02;;;;;;;2.88;55.22;101660.91;5046183;28;20087;-77
2022/04/27 10:45:41;;;;;;;3.85;0.98;;;;;;;2.86;54.09;101668.41;5062013;28;20076;-78
2022/04/27 10:48:15;;;;;;;1.77;0.88;;;;;;;2.87;54.55;101679.03;5029980;28;20048;-77
2022/04/27 10:50:54;;;;;;;1.77;0.85;;;;;;;2.60;56.53;101686.28;5009612;28;20033;-78
2022/04/27 10:53:25;;;;;;;1.52;0.60;;;;;;;2.30;58.45;101703.84;5011283;28;20046;-78
2022/04/27 10:55:53;;;;;;;1.60;0.63;;;;;;;2.05;58.34;101703.47;5011359;28;20488;-77
2022/04/27 10:58:22;;;;;;;0.73;0.60;;;;;;;1.81;58.31;101704.78;5015667;28;20041;-77
2022/04/27 11:01:02;;;;;;;0.50;0.50;;;;;;;1.67;59.30;101700.31;5030677;28;20044;-79
2022/04/27 11:03:29;;;;;;;0.40;0.40;;;;;;;1.72;59.00;101700.56;5031049;28;20088;-79
2022/04/27 11:06:00;;;;;;;0.50;0.50;;;;;;;1.66;57.20;101699.47;5030235;28;20042;-78
2022/04/27 11:08:53;;;;;;;0.52;0.52;;;;;;;1.65;57.20;101713.19;5036771;28;20091;-78
2022/04/27 11:11:22;;;;;;;1.05;0.57;;;;;;;1.72;56.91;101687.03;5029843;28;20044;-78
2022/04/27 11:13:48;;;;;;;0.98;0.47;;;;;;;1.69;56.26;101690.97;5030001;28;20049;-79
2022/04/27 11:16:15;;;;;;;2.28;0.52;;;;;;;1.70;55.25;101686.38;5029478;28;20040;-78
2022/04/27 11:18:55;;;;;;;0.80;0.40;;;;;;;1.67;54.39;101678.66;5012823;28;20046;-79
2022/04/27 11:21:22;;;;;;;0.60;0.60;;;;;;;1.73;54.75;101672.47;5010601;28;20037;-79
2022/04/27 11:23:48;;;;;;;0.70;0.55;;;;;;;1.87;54.11;101668.81;4997106;28;20034;-79
2022/04/27 11:26:14;;;;;;;0.95;0.80;;;;;;;2.07;54.46;101667.06;5029602;28;20044;-79
2022/04/27 11:28:44;;;;;;;1.65;0.60;;;;;;;2.40;53.52;101678.03;5062538;28;20496;-79
2022/04/27 11:31:10;;;;;;;0.82;0.60;;;;;;;2.71;52.27;101680.25;5062596;28;20571;-79
2022/04/27 11:33:40;;;;;;;1.05;0.70;;;;;;;2.97;51.89;101673.25;5029405;28;20034;-80
2022/04/27 11:36:26;;;;;;;0.90;0.50;;;;;;;3.26;49.93;101663.88;5030800;28;20045;-79
2022/04/27 11:38:53;;;;;;;1.00;0.80;;;;;;;3.49;48.65;101666.19;5027777;28;20080;-78
2022/04/27 11:41:23;;;;;;;1.65;0.47;;;;;;;3.67;48.19;101662.84;5044368;28;20044;-77
2022/04/27 11:43:55;;;;;;;0.82;0.70;;;;;;;3.97;47.63;101668.63;5029302;28;20143;-77
2022/04/27 11:46:21;;;;;;;0.98;0.65;;;;;;;4.20;46.73;101669.00;5030743;28;20528;-79
2022/04/27 11:48:47;;;;;;;5.63;0.80;;;;;;;4.46;46.72;101666.16;5029569;28;20052;-78
2022/04/27 11:51:13;;;;;;;1.35;0.75;;;;;;;4.72;46.23;101667.09;5029393;28;20520;-78
2022/04/27 11:53:47;;;;;;;2.03;0.90;;;;;;;4.95;45.61;101666.53;5029652;28;20584;-77
2022/04/27 11:56:14;;;;;;;0.88;0.68;;;;;;;4.98;44.49;101661.50;5035401;28;20041;-76
2022/04/27 11:58:40;;;;;;;2.22;0.82;;;;;;;5.14;44.63;101660.97;5040001;28;20534;-77
2022/04/27 12:01:06;;;;;;;1.58;0.90;;;;;;;5.19;44.21;101660.28;5040209;28;21925;-79
2022/04/27 12:03:39;;;;;;;2.10;0.85;;;;;;;5.18;44.11;101653.19;5051729;28;20069;-80
2022/04/27 12:06:05;;;;;;;3.60;1.08;;;;;;;5.24;43.99;101663.22;5054870;28;20028;-77
2022/04/27 12:08:33;;;;;;;0.70;0.70;;;;;;;5.36;43.46;101660.59;5054240;28;20045;-78